createdAt,value
2023-05-05T00:00:27.552Z,74
2023-05-05T00:00:51.328Z,74
2023-05-05T00:01:24.136Z,74
2023-05-05T00:01:46.688Z,74
2023-05-05T00:02:10.592Z,74
2023-05-05T00:02:44.126Z,74
2023-05-05T00:03:14.003Z,74
2023-05-05T00:03:50.501Z,74
2023-05-05T00:04:20.061Z,74
2023-05-05T00:04:42.620Z,74
2023-05-05T00:05:04.953Z,74
2023-05-05T00:05:40.066Z,74
2023-05-05T00:06:11.989Z,74
2023-05-05T00:06:43.843Z,74
2023-05-05T00:07:13.883Z,74
2023-05-05T00:07:48.425Z,73
2023-05-05T00:08:19.991Z,73
2023-05-05T00:08:43.687Z,73
2023-05-05T00:09:06.090Z,73
2023-05-05T00:09:40.069Z,73
2023-05-05T00:10:11.809Z,73
2023-05-05T00:10:44.108Z,73
2023-05-05T00:11:14.223Z,73
2023-05-05T00:11:47.823Z,73
2023-05-05T00:12:19.933Z,73
2023-05-05T00:12:42.687Z,73
2023-05-05T00:13:05.136Z,73
2023-05-05T00:13:40.150Z,73
2023-05-05T00:14:11.958Z,73
2023-05-05T00:14:45.540Z,73
2023-05-05T00:15:16.215Z,73
2023-05-05T00:15:47.882Z,73
2023-05-05T00:16:19.989Z,73
2023-05-05T00:16:43.015Z,74
2023-05-05T00:17:05.230Z,74
2023-05-05T00:17:40.414Z,74
2023-05-05T00:18:11.794Z,74
2023-05-05T00:18:45.422Z,74
2023-05-05T00:19:14.075Z,74
2023-05-05T00:19:47.934Z,74
2023-05-05T00:20:19.965Z,74
2023-05-05T00:20:42.619Z,74
2023-05-05T00:21:05.021Z,74
2023-05-05T00:21:39.976Z,74
2023-05-05T00:22:12.007Z,74
2023-05-05T00:22:43.950Z,74
2023-05-05T00:23:13.795Z,74
2023-05-05T00:23:47.979Z,74
2023-05-05T00:24:19.997Z,74
2023-05-05T00:24:42.860Z,73
2023-05-05T00:25:05.279Z,73
2023-05-05T00:25:40.097Z,74
2023-05-05T00:26:11.788Z,73
2023-05-05T00:26:44.035Z,73
2023-05-05T00:27:13.952Z,73
2023-05-05T00:27:47.808Z,73
2023-05-05T00:28:19.822Z,73
2023-05-05T00:28:42.917Z,73
2023-05-05T00:29:05.151Z,73
2023-05-05T00:29:40.001Z,73
2023-05-05T00:30:12.062Z,73
2023-05-05T00:30:44.076Z,73
2023-05-05T00:31:13.811Z,73
2023-05-05T00:31:47.892Z,73
2023-05-05T00:32:20.048Z,73
2023-05-05T00:32:42.846Z,73
2023-05-05T00:33:04.981Z,73
2023-05-05T00:33:40.254Z,73
2023-05-05T00:34:12.064Z,74
2023-05-05T00:34:43.785Z,74
2023-05-05T00:35:13.770Z,73
2023-05-05T00:35:47.893Z,74
2023-05-05T00:36:19.919Z,74
2023-05-05T00:36:42.582Z,74
2023-05-05T00:37:04.996Z,74
2023-05-05T00:37:40.177Z,74
2023-05-05T00:38:11.864Z,74
2023-05-05T00:38:43.886Z,74
2023-05-05T00:39:13.798Z,74
2023-05-05T00:39:47.926Z,74
2023-05-05T00:40:19.865Z,74
2023-05-05T00:40:42.597Z,74
2023-05-05T00:41:05.105Z,74
2023-05-05T00:41:45.506Z,74
2023-05-05T00:42:11.910Z,74
2023-05-05T00:42:44.025Z,74
2023-05-05T00:43:13.784Z,74
2023-05-05T00:43:48.136Z,74
2023-05-05T00:44:19.935Z,74
2023-05-05T00:44:49.964Z,74
2023-05-05T00:45:06.924Z,74
2023-05-05T00:45:39.891Z,74
2023-05-05T00:46:12.034Z,74
2023-05-05T00:46:43.853Z,74
2023-05-05T00:47:13.954Z,74
2023-05-05T00:47:47.938Z,74
2023-05-05T00:48:19.908Z,74
2023-05-05T00:48:43.111Z,74
2023-05-05T00:49:05.527Z,74
2023-05-05T00:49:40.003Z,74
2023-05-05T00:50:12.305Z,74
2023-05-05T00:50:43.911Z,74
2023-05-05T00:51:15.893Z,74
2023-05-05T00:51:47.838Z,74
2023-05-05T00:52:19.903Z,74
2023-05-05T00:52:42.635Z,74
2023-05-05T00:53:04.886Z,74
2023-05-05T00:53:39.872Z,74
2023-05-05T00:54:11.832Z,74
2023-05-05T00:54:43.913Z,74
2023-05-05T00:55:13.930Z,74
2023-05-05T00:55:47.754Z,74
2023-05-05T00:56:19.852Z,74
2023-05-05T00:56:42.675Z,74
2023-05-05T00:57:04.965Z,74
2023-05-05T00:57:40.081Z,74
2023-05-05T00:58:12.197Z,74
2023-05-05T00:58:43.930Z,74
2023-05-05T00:59:13.869Z,74
2023-05-05T00:59:47.902Z,74
2023-05-05T01:00:19.845Z,74
2023-05-05T01:00:43.113Z,74
2023-05-05T01:01:05.393Z,74
2023-05-05T01:01:39.887Z,74
2023-05-05T01:02:12.100Z,74
2023-05-05T01:02:43.911Z,74
2023-05-05T01:03:13.970Z,74
2023-05-05T01:04:20.568Z,74
2023-05-05T01:04:42.622Z,74
2023-05-05T01:05:04.948Z,74
2023-05-05T01:05:40.021Z,74
2023-05-05T01:06:11.991Z,74
2023-05-05T01:06:43.755Z,74
2023-05-05T01:07:13.797Z,74
2023-05-05T01:07:47.798Z,74
2023-05-05T01:08:19.845Z,74
2023-05-05T01:08:42.531Z,74
2023-05-05T01:09:04.990Z,74
2023-05-05T01:09:39.955Z,74
2023-05-05T01:10:20.252Z,74
2023-05-05T01:10:43.741Z,74
2023-05-05T01:11:13.835Z,74
2023-05-05T01:11:47.824Z,74
2023-05-05T01:12:19.868Z,74
2023-05-05T01:12:42.733Z,74
2023-05-05T01:13:05.365Z,74
2023-05-05T01:13:40.015Z,75
2023-05-05T01:14:11.950Z,75
2023-05-05T01:14:44.022Z,75
2023-05-05T01:15:14.036Z,75
2023-05-05T01:15:47.782Z,75
2023-05-05T01:16:19.874Z,75
2023-05-05T01:16:42.564Z,75
2023-05-05T01:17:04.835Z,75
2023-05-05T01:17:39.998Z,75
2023-05-05T01:18:11.861Z,75
2023-05-05T01:18:43.831Z,75
2023-05-05T01:19:21.244Z,75
2023-05-05T01:19:48.098Z,75
2023-05-05T01:20:19.824Z,75
2023-05-05T01:20:42.967Z,75
2023-05-05T01:21:05.485Z,75
2023-05-05T01:21:39.815Z,75
2023-05-05T01:22:11.909Z,75
2023-05-05T01:22:43.691Z,75
2023-05-05T01:23:13.827Z,75
2023-05-05T01:23:48.150Z,75
2023-05-05T01:24:19.834Z,75
2023-05-05T01:24:42.541Z,75
2023-05-05T01:25:05.056Z,75
2023-05-05T01:25:39.747Z,75
2023-05-05T01:26:11.815Z,75
2023-05-05T01:26:44.043Z,75
2023-05-05T01:27:13.844Z,75
2023-05-05T01:27:47.821Z,75
2023-05-05T01:28:19.835Z,75
2023-05-05T01:28:42.725Z,75
2023-05-05T01:29:05.108Z,75
2023-05-05T01:29:39.792Z,75
2023-05-05T01:30:12.114Z,75
2023-05-05T01:30:43.971Z,75
2023-05-05T01:31:13.837Z,75
2023-05-05T01:31:47.932Z,75
2023-05-05T01:32:19.705Z,75
2023-05-05T01:32:42.454Z,75
2023-05-05T01:33:04.726Z,75
2023-05-05T01:33:40.395Z,75
2023-05-05T01:34:11.817Z,75
2023-05-05T01:34:43.731Z,75
2023-05-05T01:35:13.801Z,75
2023-05-05T01:35:47.839Z,75
2023-05-05T01:36:19.737Z,75
2023-05-05T01:36:42.723Z,75
2023-05-05T01:37:05.489Z,75
2023-05-05T01:37:39.878Z,75
2023-05-05T01:38:11.840Z,75
2023-05-05T01:38:43.769Z,75
2023-05-05T01:39:13.898Z,75
2023-05-05T01:39:47.843Z,75
2023-05-05T01:40:19.899Z,75
2023-05-05T01:40:42.534Z,75
2023-05-05T01:41:04.899Z,75
2023-05-05T01:41:39.816Z,75
2023-05-05T01:42:11.818Z,74
2023-05-05T01:42:43.860Z,75
2023-05-05T01:43:13.922Z,75
2023-05-05T01:43:47.757Z,75
2023-05-05T01:44:19.824Z,74
2023-05-05T01:44:42.541Z,74
2023-05-05T01:45:05.014Z,75
2023-05-05T01:45:39.735Z,74
2023-05-05T01:46:11.843Z,74
2023-05-05T01:46:44.166Z,75
2023-05-05T01:47:14.094Z,75
2023-05-05T01:47:48.028Z,75
2023-05-05T01:48:19.795Z,75
2023-05-05T01:48:42.596Z,75
2023-05-05T01:49:04.893Z,75
2023-05-05T01:49:39.891Z,75
2023-05-05T01:50:11.875Z,75
2023-05-05T01:50:45.277Z,75
2023-05-05T01:51:16.050Z,75
2023-05-05T01:51:47.817Z,75
2023-05-05T01:52:19.720Z,75
2023-05-05T01:52:43.115Z,75
2023-05-05T01:53:05.090Z,75
2023-05-05T01:53:39.985Z,75
2023-05-05T01:54:11.801Z,75
2023-05-05T01:54:43.720Z,75
2023-05-05T01:55:15.885Z,75
2023-05-05T01:55:48.058Z,75
2023-05-05T01:56:35.880Z,75
2023-05-05T01:57:07.830Z,75
2023-05-05T01:57:39.871Z,75
2023-05-05T01:58:11.673Z,75
2023-05-05T01:58:49.670Z,75
2023-05-05T01:59:15.860Z,74
2023-05-05T01:59:48.293Z,74
2023-05-05T02:00:19.887Z,74
2023-05-05T02:00:42.872Z,74
2023-05-05T02:01:05.498Z,74
2023-05-05T02:01:40.028Z,74
2023-05-05T02:02:11.880Z,74
2023-05-05T02:02:43.952Z,74
2023-05-05T02:03:13.978Z,75
2023-05-05T02:03:42.710Z,75
2023-05-05T02:04:20.047Z,75
2023-05-05T02:04:42.655Z,75
2023-05-05T02:05:08.865Z,75
2023-05-05T02:05:41.951Z,75
2023-05-05T02:06:14.278Z,75
2023-05-05T02:06:44.962Z,75
2023-05-05T02:07:15.987Z,75
2023-05-05T02:07:47.802Z,75
2023-05-05T02:08:19.797Z,75
2023-05-05T02:08:42.511Z,75
2023-05-05T02:09:06.493Z,75
2023-05-05T02:09:39.851Z,75
2023-05-05T02:10:12.167Z,75
2023-05-05T02:10:43.895Z,75
2023-05-05T02:11:14.029Z,75
2023-05-05T02:11:47.658Z,75
2023-05-05T02:12:20.020Z,75
2023-05-05T02:12:42.759Z,75
2023-05-05T02:13:07.405Z,75
2023-05-05T02:13:41.030Z,75
2023-05-05T02:14:12.049Z,75
2023-05-05T02:14:47.402Z,75
2023-05-05T02:15:10.066Z,75
2023-05-05T02:15:48.156Z,75
2023-05-05T02:16:19.677Z,75
2023-05-05T02:16:42.392Z,75
2023-05-05T02:17:04.835Z,75
2023-05-05T02:17:39.942Z,75
2023-05-05T02:18:11.810Z,75
2023-05-05T02:18:43.809Z,75
2023-05-05T02:19:10.021Z,75
2023-05-05T02:19:49.066Z,75
2023-05-05T02:20:19.865Z,75
2023-05-05T02:20:42.595Z,75
2023-05-05T02:21:05.201Z,75
2023-05-05T02:21:39.876Z,75
2023-05-05T02:22:12.117Z,75
2023-05-05T02:22:43.735Z,75
2023-05-05T02:23:13.917Z,75
2023-05-05T02:23:47.768Z,75
2023-05-05T02:24:19.899Z,75
2023-05-05T02:24:42.582Z,75
2023-05-05T02:25:05.066Z,75
2023-05-05T02:25:40.903Z,75
2023-05-05T02:26:12.012Z,75
2023-05-05T02:26:43.998Z,75
2023-05-05T02:27:13.816Z,75
2023-05-05T02:27:47.798Z,75
2023-05-05T02:28:19.816Z,75
2023-05-05T02:28:42.518Z,75
2023-05-05T02:29:04.918Z,75
2023-05-05T02:29:39.740Z,75
2023-05-05T02:30:12.342Z,75
2023-05-05T02:30:44.109Z,75
2023-05-05T02:31:14.245Z,75
2023-05-05T02:31:47.904Z,75
2023-05-05T02:32:19.822Z,75
2023-05-05T02:32:42.507Z,75
2023-05-05T02:33:04.872Z,75
2023-05-05T02:33:40.796Z,75
2023-05-05T02:34:12.163Z,75
2023-05-05T02:34:44.227Z,75
2023-05-05T02:35:13.962Z,75
2023-05-05T02:35:47.924Z,75
2023-05-05T02:36:19.761Z,76
2023-05-05T02:36:42.467Z,76
2023-05-05T02:37:05.291Z,76
2023-05-05T02:37:39.800Z,76
2023-05-05T02:38:11.748Z,76
2023-05-05T02:38:44.811Z,76
2023-05-05T02:39:16.577Z,76
2023-05-05T02:39:47.908Z,76
2023-05-05T02:40:20.169Z,76
2023-05-05T02:40:42.948Z,76
2023-05-05T02:41:06.975Z,76
2023-05-05T02:41:40.274Z,76
2023-05-05T02:42:11.830Z,76
2023-05-05T02:42:43.867Z,76
2023-05-05T02:43:13.973Z,76
2023-05-05T02:43:47.901Z,76
2023-05-05T02:44:19.795Z,76
2023-05-05T02:44:42.485Z,76
2023-05-05T02:45:05.134Z,76
2023-05-05T02:45:39.840Z,76
2023-05-05T02:46:11.962Z,75
2023-05-05T02:46:43.905Z,75
2023-05-05T02:47:14.107Z,75
2023-05-05T02:47:47.699Z,76
2023-05-05T02:48:20.216Z,76
2023-05-05T02:48:42.865Z,76
2023-05-05T02:49:05.205Z,76
2023-05-05T02:49:39.865Z,76
2023-05-05T02:50:12.876Z,76
2023-05-05T02:50:44.358Z,76
2023-05-05T02:51:15.739Z,76
2023-05-05T02:51:47.877Z,76
2023-05-05T02:52:19.643Z,76
2023-05-05T02:52:42.587Z,76
2023-05-05T02:53:05.230Z,76
2023-05-05T02:53:40.139Z,76
2023-05-05T02:54:13.022Z,76
2023-05-05T02:54:43.814Z,76
2023-05-05T02:55:14.558Z,76
2023-05-05T02:55:48.299Z,76
2023-05-05T02:56:21.504Z,75
2023-05-05T02:56:43.994Z,75
2023-05-05T02:57:07.859Z,75
2023-05-05T02:57:40.342Z,75
2023-05-05T02:58:13.901Z,75
2023-05-05T02:58:44.761Z,75
2023-05-05T02:59:16.161Z,75
2023-05-05T02:59:48.653Z,75
2023-05-05T03:00:25.394Z,75
2023-05-05T03:00:47.752Z,76
2023-05-05T03:01:24.149Z,76
2023-05-05T03:01:46.799Z,76
2023-05-05T03:02:09.570Z,76
2023-05-05T03:02:46.333Z,76
2023-05-05T03:03:14.532Z,76
2023-05-05T03:03:53.334Z,76
2023-05-05T03:04:19.987Z,76
2023-05-05T03:04:43.427Z,76
2023-05-05T03:05:05.990Z,76
2023-05-05T03:05:39.995Z,76
2023-05-05T03:06:11.884Z,76
2023-05-05T03:06:43.661Z,76
2023-05-05T03:07:15.300Z,76
2023-05-05T03:07:49.244Z,77
2023-05-05T03:08:19.829Z,77
2023-05-05T03:08:42.807Z,77
2023-05-05T03:09:05.106Z,77
2023-05-05T03:09:39.958Z,77
2023-05-05T03:10:11.630Z,77
2023-05-05T03:10:43.747Z,77
2023-05-05T03:11:15.591Z,77
2023-05-05T03:11:47.707Z,77
2023-05-05T03:12:19.731Z,77
2023-05-05T03:12:42.752Z,77
2023-05-05T03:13:05.259Z,77
2023-05-05T03:13:39.960Z,77
2023-05-05T03:14:11.852Z,77
2023-05-05T03:14:43.972Z,77
2023-05-05T03:15:17.407Z,77
2023-05-05T03:15:47.777Z,78
2023-05-05T03:16:19.808Z,78
2023-05-05T03:16:42.697Z,78
2023-05-05T03:17:04.973Z,78
2023-05-05T03:17:39.690Z,78
2023-05-05T03:18:11.848Z,78
2023-05-05T03:18:43.617Z,78
2023-05-05T03:19:10.937Z,78
2023-05-05T03:19:49.071Z,78
2023-05-05T03:20:20.192Z,78
2023-05-05T03:20:42.620Z,78
2023-05-05T03:21:05.075Z,78
2023-05-05T03:21:39.819Z,78
2023-05-05T03:22:11.922Z,78
2023-05-05T03:22:43.721Z,78
2023-05-05T03:23:14.025Z,78
2023-05-05T03:23:47.735Z,78
2023-05-05T03:24:19.688Z,78
2023-05-05T03:24:42.378Z,78
2023-05-05T03:25:04.710Z,78
2023-05-05T03:25:39.763Z,78
2023-05-05T03:26:14.193Z,78
2023-05-05T03:26:44.452Z,78
2023-05-05T03:27:13.933Z,79
2023-05-05T03:27:48.056Z,79
2023-05-05T03:28:20.021Z,79
2023-05-05T03:28:42.776Z,79
2023-05-05T03:29:05.327Z,78
2023-05-05T03:29:40.003Z,78
2023-05-05T03:30:14.004Z,79
2023-05-05T03:30:43.828Z,79
2023-05-05T03:31:13.867Z,79
2023-05-05T03:31:47.902Z,79
2023-05-05T03:32:20.765Z,79
2023-05-05T03:32:43.503Z,79
2023-05-05T03:33:06.049Z,79
2023-05-05T03:33:40.220Z,79
2023-05-05T03:34:11.812Z,79
2023-05-05T03:34:43.957Z,79
2023-05-05T03:35:13.947Z,79
2023-05-05T03:35:47.722Z,79
2023-05-05T03:36:20.149Z,79
2023-05-05T03:36:42.409Z,79
2023-05-05T03:37:05.023Z,79
2023-05-05T03:37:39.734Z,79
2023-05-05T03:38:11.840Z,80
2023-05-05T03:38:43.763Z,80
2023-05-05T03:39:14.116Z,80
2023-05-05T03:39:47.749Z,80
2023-05-05T03:40:23.494Z,80
2023-05-05T03:40:44.538Z,80
2023-05-05T03:41:05.009Z,80
2023-05-05T03:41:40.053Z,79
2023-05-05T03:42:11.770Z,79
2023-05-05T03:42:43.690Z,79
2023-05-05T03:43:14.991Z,79
2023-05-05T03:43:47.825Z,79
2023-05-05T03:44:21.573Z,78
2023-05-05T03:44:42.476Z,78
2023-05-05T03:45:05.167Z,78
2023-05-05T03:45:39.780Z,79
2023-05-05T03:46:12.375Z,79
2023-05-05T03:46:43.841Z,79
2023-05-05T03:47:14.298Z,80
2023-05-05T03:47:47.706Z,80
2023-05-05T03:48:22.095Z,80
2023-05-05T03:48:42.510Z,80
2023-05-05T03:49:05.260Z,80
2023-05-05T03:49:40.065Z,80
2023-05-05T03:50:12.105Z,80
2023-05-05T03:50:43.716Z,79
2023-05-05T03:51:14.706Z,79
2023-05-05T03:51:48.113Z,79
2023-05-05T03:52:19.690Z,79
2023-05-05T03:52:42.452Z,79
2023-05-05T03:53:04.904Z,80
2023-05-05T03:53:40.609Z,80
2023-05-05T03:54:11.832Z,80
2023-05-05T03:54:43.784Z,80
2023-05-05T03:55:14.044Z,80
2023-05-05T03:55:48.094Z,80
2023-05-05T03:56:23.707Z,80
2023-05-05T03:56:44.502Z,80
2023-05-05T03:57:08.798Z,80
2023-05-05T03:57:40.231Z,80
2023-05-05T03:58:11.974Z,80
2023-05-05T03:58:44.228Z,80
2023-05-05T03:59:14.733Z,80
2023-05-05T03:59:48.836Z,80
2023-05-05T04:00:19.858Z,80
2023-05-05T04:00:42.491Z,80
2023-05-05T04:01:04.986Z,81
2023-05-05T04:01:40.230Z,81
2023-05-05T04:02:12.503Z,81
2023-05-05T04:02:45.682Z,81
2023-05-05T04:03:14.679Z,81
2023-05-05T04:03:48.273Z,81
2023-05-05T04:04:20.727Z,81
2023-05-05T04:04:43.062Z,81
2023-05-05T04:05:05.567Z,81
2023-05-05T04:05:40.208Z,81
2023-05-05T04:06:12.496Z,81
2023-05-05T04:06:44.121Z,81
2023-05-05T04:07:14.930Z,81
2023-05-05T04:07:48.614Z,81
2023-05-05T04:08:20.002Z,82
2023-05-05T04:08:42.384Z,82
2023-05-05T04:09:05.252Z,82
2023-05-05T04:09:40.225Z,82
2023-05-05T04:10:12.003Z,82
2023-05-05T04:10:43.984Z,82
2023-05-05T04:11:14.131Z,82
2023-05-05T04:11:47.778Z,82
2023-05-05T04:12:19.849Z,82
2023-05-05T04:12:42.828Z,82
2023-05-05T04:13:05.116Z,82
2023-05-05T04:13:42.062Z,81
2023-05-05T04:14:12.763Z,81
2023-05-05T04:14:44.105Z,81
2023-05-05T04:15:14.119Z,81
2023-05-05T04:15:48.207Z,81
2023-05-05T04:16:20.103Z,81
2023-05-05T04:16:42.766Z,81
2023-05-05T04:17:05.073Z,82
2023-05-05T04:17:39.814Z,82
2023-05-05T04:18:11.868Z,82
2023-05-05T04:18:43.619Z,82
2023-05-05T04:19:14.806Z,82
2023-05-05T04:19:48.010Z,82
2023-05-05T04:20:20.142Z,82
2023-05-05T04:20:42.974Z,82
2023-05-05T04:21:05.252Z,82
2023-05-05T04:21:39.916Z,82
2023-05-05T04:22:11.792Z,82
2023-05-05T04:22:43.924Z,82
2023-05-05T04:23:14.128Z,82
2023-05-05T04:23:48.230Z,82
2023-05-05T04:24:19.748Z,82
2023-05-05T04:24:42.454Z,82
2023-05-05T04:25:04.953Z,83
2023-05-05T04:25:39.601Z,83
2023-05-05T04:26:11.677Z,83
2023-05-05T04:26:43.953Z,83
2023-05-05T04:27:14.757Z,83
2023-05-05T04:27:47.995Z,83
2023-05-05T04:28:21.592Z,83
2023-05-05T04:28:42.921Z,83
2023-05-05T04:29:05.818Z,83
2023-05-05T04:29:39.715Z,83
2023-05-05T04:30:11.847Z,83
2023-05-05T04:30:43.850Z,83
2023-05-05T04:31:14.007Z,83
2023-05-05T04:31:48.069Z,83
2023-05-05T04:32:19.824Z,83
2023-05-05T04:32:42.585Z,83
2023-05-05T04:33:05.018Z,83
2023-05-05T04:33:40.177Z,83
2023-05-05T04:34:12.647Z,83
2023-05-05T04:34:43.806Z,83
2023-05-05T04:35:14.474Z,83
2023-05-05T04:35:48.112Z,83
2023-05-05T04:36:19.814Z,83
2023-05-05T04:36:42.568Z,83
2023-05-05T04:37:05.195Z,83
2023-05-05T04:37:40.327Z,83
2023-05-05T04:38:11.715Z,83
2023-05-05T04:38:44.025Z,83
2023-05-05T04:39:13.874Z,83
2023-05-05T04:39:47.706Z,82
2023-05-05T04:40:19.715Z,82
2023-05-05T04:40:42.492Z,82
2023-05-05T04:41:05.284Z,82
2023-05-05T04:41:39.713Z,82
2023-05-05T04:42:11.790Z,82
2023-05-05T04:42:43.918Z,82
2023-05-05T04:43:14.221Z,82
2023-05-05T04:43:47.807Z,82
2023-05-05T04:44:19.785Z,81
2023-05-05T04:44:42.501Z,81
2023-05-05T04:45:05.061Z,81
2023-05-05T04:45:39.894Z,82
2023-05-05T04:46:12.255Z,82
2023-05-05T04:46:44.325Z,82
2023-05-05T04:47:14.818Z,81
2023-05-05T04:47:47.861Z,81
2023-05-05T04:48:19.617Z,81
2023-05-05T04:48:42.336Z,81
2023-05-05T04:49:04.697Z,81
2023-05-05T04:49:39.774Z,81
2023-05-05T04:50:11.849Z,81
2023-05-05T04:50:43.592Z,81
2023-05-05T04:51:14.054Z,81
2023-05-05T04:51:47.807Z,81
2023-05-05T04:52:20.864Z,81
2023-05-05T04:52:43.230Z,81
2023-05-05T04:53:06.197Z,81
2023-05-05T04:53:39.821Z,81
2023-05-05T04:54:11.804Z,81
2023-05-05T04:54:43.771Z,80
2023-05-05T04:55:13.998Z,80
2023-05-05T04:55:47.910Z,80
2023-05-05T04:56:20.006Z,81
2023-05-05T04:56:42.734Z,81
2023-05-05T04:57:06.251Z,81
2023-05-05T04:57:39.812Z,81
2023-05-05T04:58:12.382Z,81
2023-05-05T04:58:44.554Z,81
2023-05-05T04:59:19.731Z,81
2023-05-05T04:59:48.418Z,81
2023-05-05T05:00:22.853Z,81
2023-05-05T05:00:43.875Z,82
2023-05-05T05:01:06.577Z,83
2023-05-05T05:01:41.014Z,83
2023-05-05T05:02:12.401Z,82
2023-05-05T05:02:44.491Z,83
2023-05-05T05:03:14.690Z,83
2023-05-05T05:03:48.426Z,83
2023-05-05T05:04:20.574Z,83
2023-05-05T05:04:43.321Z,83
2023-05-05T05:05:06.060Z,83
2023-05-05T05:05:39.927Z,83
2023-05-05T05:06:12.785Z,83
2023-05-05T05:06:44.649Z,83
2023-05-05T05:07:14.771Z,84
2023-05-05T05:07:48.562Z,84
2023-05-05T05:08:20.288Z,84
2023-05-05T05:08:42.833Z,84
2023-05-05T05:09:07.028Z,84
2023-05-05T05:09:40.779Z,85
2023-05-05T05:10:12.239Z,85
2023-05-05T05:10:43.873Z,85
2023-05-05T05:11:15.419Z,85
2023-05-05T05:11:48.710Z,85
2023-05-05T05:12:20.017Z,85
2023-05-05T05:12:42.635Z,85
2023-05-05T05:13:06.784Z,85
2023-05-05T05:13:39.960Z,84
2023-05-05T05:14:12.703Z,84
2023-05-05T05:14:43.897Z,84
2023-05-05T05:15:14.858Z,84
2023-05-05T05:15:47.729Z,84
2023-05-05T05:16:19.854Z,84
2023-05-05T05:16:42.495Z,84
2023-05-05T05:17:05.322Z,83
2023-05-05T05:17:40.964Z,83
2023-05-05T05:18:11.575Z,83
2023-05-05T05:18:43.638Z,83
2023-05-05T05:19:14.735Z,83
2023-05-05T05:19:48.072Z,83
2023-05-05T05:20:20.218Z,83
2023-05-05T05:20:42.642Z,83
2023-05-05T05:21:05.109Z,83
2023-05-05T05:21:39.806Z,83
2023-05-05T05:22:11.780Z,83
2023-05-05T05:22:43.596Z,82
2023-05-05T05:23:14.211Z,82
2023-05-05T05:23:48.365Z,83
2023-05-05T05:24:20.560Z,83
2023-05-05T05:24:43.210Z,83
2023-05-05T05:25:05.517Z,84
2023-05-05T05:25:40.825Z,85
2023-05-05T05:26:12.157Z,85
2023-05-05T05:26:43.784Z,86
2023-05-05T05:27:13.919Z,86
2023-05-05T05:27:55.278Z,86
2023-05-05T05:28:19.775Z,86
2023-05-05T05:28:42.514Z,86
2023-05-05T05:29:05.237Z,86
2023-05-05T05:29:39.773Z,87
2023-05-05T05:30:11.852Z,87
2023-05-05T05:30:44.937Z,87
2023-05-05T05:31:15.101Z,87
2023-05-05T05:31:48.044Z,87
2023-05-05T05:32:19.758Z,87
2023-05-05T05:32:42.470Z,87
2023-05-05T05:33:04.857Z,87
2023-05-05T05:33:41.649Z,87
2023-05-05T05:34:12.948Z,88
2023-05-05T05:34:44.761Z,88
2023-05-05T05:35:14.065Z,88
2023-05-05T05:35:47.850Z,88
2023-05-05T05:36:19.662Z,88
2023-05-05T05:36:42.390Z,88
2023-05-05T05:37:04.786Z,88
2023-05-05T05:37:40.004Z,88
2023-05-05T05:38:11.805Z,88
2023-05-05T05:38:43.562Z,88
2023-05-05T05:39:14.235Z,88
2023-05-05T05:39:47.888Z,88
2023-05-05T05:40:19.875Z,88
2023-05-05T05:40:42.677Z,88
2023-05-05T05:41:05.157Z,88
2023-05-05T05:41:40.053Z,88
2023-05-05T05:42:11.631Z,89
2023-05-05T05:42:43.666Z,88
2023-05-05T05:43:14.124Z,88
2023-05-05T05:43:47.702Z,88
2023-05-05T05:44:19.624Z,88
2023-05-05T05:44:42.360Z,88
2023-05-05T05:45:05.505Z,88
2023-05-05T05:45:39.677Z,88
2023-05-05T05:46:11.801Z,88
2023-05-05T05:46:43.689Z,88
2023-05-05T05:47:14.461Z,88
2023-05-05T05:47:47.687Z,88
2023-05-05T05:48:19.944Z,88
2023-05-05T05:48:42.587Z,88
2023-05-05T05:49:05.195Z,88
2023-05-05T05:49:39.863Z,88
2023-05-05T05:50:11.593Z,88
2023-05-05T05:50:44.006Z,88
2023-05-05T05:51:14.690Z,88
2023-05-05T05:51:48.157Z,88
2023-05-05T05:52:21.335Z,88
2023-05-05T05:52:42.638Z,88
2023-05-05T05:53:05.598Z,88
2023-05-05T05:53:40.414Z,88
2023-05-05T05:54:11.757Z,88
2023-05-05T05:54:43.771Z,88
2023-05-05T05:55:14.334Z,88
2023-05-05T05:55:47.882Z,88
2023-05-05T05:56:20.011Z,88
2023-05-05T05:56:42.847Z,88
2023-05-05T05:57:05.559Z,88
2023-05-05T05:57:41.802Z,88
2023-05-05T05:58:11.928Z,88
2023-05-05T05:58:44.085Z,88
2023-05-05T05:59:14.265Z,88
2023-05-05T05:59:48.560Z,87
2023-05-05T06:00:32.830Z,87
2023-05-05T06:00:43.091Z,87
2023-05-05T06:01:05.844Z,86
2023-05-05T06:01:43.419Z,86
2023-05-05T06:02:05.769Z,86
2023-05-05T06:02:43.871Z,86
2023-05-05T06:03:14.421Z,85
2023-05-05T06:03:47.921Z,85
2023-05-05T06:04:19.078Z,85
2023-05-05T06:04:46.176Z,85
2023-05-05T06:05:24.171Z,84
2023-05-05T06:05:47.785Z,84
2023-05-05T06:06:09.846Z,83
2023-05-05T06:06:43.907Z,83
2023-05-05T06:07:14.166Z,83
2023-05-05T06:07:47.592Z,83
2023-05-05T06:08:19.769Z,82
2023-05-05T06:08:42.440Z,82
2023-05-05T06:09:04.962Z,82
2023-05-05T06:09:41.808Z,81
2023-05-05T06:10:26.389Z,81
2023-05-05T06:10:43.748Z,81
2023-05-05T06:11:14.065Z,81
2023-05-05T06:11:47.556Z,81
2023-05-05T06:12:19.707Z,81
2023-05-05T06:12:43.316Z,81
2023-05-05T06:13:07.966Z,81
2023-05-05T06:13:40.022Z,81
2023-05-05T06:14:11.826Z,82
2023-05-05T06:14:43.773Z,82
2023-05-05T06:15:14.174Z,82
2023-05-05T06:15:47.541Z,82
2023-05-05T06:16:19.639Z,82
2023-05-05T06:16:43.106Z,82
2023-05-05T06:17:04.640Z,82
2023-05-05T06:17:39.670Z,82
2023-05-05T06:18:11.598Z,82
2023-05-05T06:18:43.669Z,82
2023-05-05T06:19:14.478Z,82
2023-05-05T06:19:55.991Z,82
2023-05-05T06:20:18.352Z,82
2023-05-05T06:20:40.770Z,82
2023-05-05T06:21:03.689Z,82
2023-05-05T06:21:40.472Z,82
2023-05-05T06:22:12.107Z,82
2023-05-05T06:22:44.104Z,82
2023-05-05T06:23:15.942Z,82
2023-05-05T06:23:48.041Z,83
2023-05-05T06:24:19.819Z,83
2023-05-05T06:24:44.317Z,83
2023-05-05T06:25:04.991Z,83
2023-05-05T06:25:39.893Z,83
2023-05-05T06:26:11.841Z,83
2023-05-05T06:26:45.323Z,83
2023-05-05T06:27:14.329Z,83
2023-05-05T06:27:48.873Z,83
2023-05-05T06:28:19.738Z,82
2023-05-05T06:28:44.925Z,82
2023-05-05T06:29:05.540Z,82
2023-05-05T06:29:39.674Z,82
2023-05-05T06:30:12.410Z,82
2023-05-05T06:30:45.275Z,82
2023-05-05T06:31:15.411Z,82
2023-05-05T06:31:47.890Z,82
2023-05-05T06:32:19.835Z,82
2023-05-05T06:32:42.520Z,82
2023-05-05T06:33:04.948Z,82
2023-05-05T06:33:40.179Z,82
2023-05-05T06:34:11.774Z,82
2023-05-05T06:34:46.062Z,82
2023-05-05T06:35:14.116Z,82
2023-05-05T06:35:47.725Z,82
2023-05-05T06:36:20.129Z,83
2023-05-05T06:36:42.544Z,83
2023-05-05T06:37:05.238Z,83
2023-05-05T06:37:39.992Z,83
2023-05-05T06:38:12.735Z,83
2023-05-05T06:38:43.923Z,83
2023-05-05T06:39:16.062Z,83
2023-05-05T06:39:47.705Z,83
2023-05-05T06:40:19.815Z,83
2023-05-05T06:40:42.533Z,83
2023-05-05T06:41:04.990Z,83
2023-05-05T06:41:39.882Z,83
2023-05-05T06:42:12.066Z,83
2023-05-05T06:42:43.755Z,83
2023-05-05T06:43:15.414Z,83
2023-05-05T06:43:48.109Z,83
2023-05-05T06:44:19.787Z,83
2023-05-05T06:44:42.595Z,83
2023-05-05T06:45:05.389Z,83
2023-05-05T06:45:39.660Z,83
2023-05-05T06:46:11.726Z,83
2023-05-05T06:46:43.904Z,83
2023-05-05T06:47:14.701Z,83
2023-05-05T06:47:48.316Z,83
2023-05-05T06:48:20.269Z,84
2023-05-05T06:48:43.133Z,84
2023-05-05T06:49:05.853Z,84
2023-05-05T06:49:39.845Z,83
2023-05-05T06:50:11.639Z,83
2023-05-05T06:50:43.708Z,83
2023-05-05T06:51:14.266Z,83
2023-05-05T06:51:49.267Z,83
2023-05-05T06:52:20.147Z,83
2023-05-05T06:52:42.795Z,83
2023-05-05T06:53:05.308Z,83
2023-05-05T06:53:39.597Z,83
2023-05-05T06:54:12.437Z,83
2023-05-05T06:54:43.724Z,83
2023-05-05T06:55:14.302Z,82
2023-05-05T06:55:49.907Z,83
2023-05-05T06:56:20.362Z,82
2023-05-05T06:56:43.086Z,82
2023-05-05T06:57:06.478Z,82
2023-05-05T06:57:39.715Z,83
2023-05-05T06:58:12.178Z,83
2023-05-05T06:58:44.180Z,83
2023-05-05T06:59:14.132Z,83
2023-05-05T06:59:50.520Z,83
2023-05-05T07:00:20.037Z,83
2023-05-05T07:00:45.087Z,83
2023-05-05T07:01:05.639Z,83
2023-05-05T07:01:40.001Z,83
2023-05-05T07:02:15.247Z,83
2023-05-05T07:02:44.045Z,83
2023-05-05T07:03:19.936Z,83
2023-05-05T07:03:42.444Z,83
2023-05-05T07:04:16.703Z,83
2023-05-05T07:04:45.900Z,82
2023-05-05T07:05:23.774Z,82
2023-05-05T07:05:46.964Z,82
2023-05-05T07:06:09.311Z,83
2023-05-05T07:06:43.690Z,82
2023-05-05T07:07:14.056Z,82
2023-05-05T07:07:47.547Z,83
2023-05-05T07:08:19.564Z,82
2023-05-05T07:08:42.690Z,82